Time;durP1;ratioP1;P1;durP2;ratioP2;P2;SDS_P1;SDS_P2;PMS_P1;PMS_P2;Temp;Humidity;BMP_temperature;BMP_pressure;BME280_temperature;BME280_humidity;BME280_pressure;Samples;Min_cycle;Max_cycle;Signal;HPM_P1;HPM_P2
2022/07/17 00:00:34;;;;;;;1.50;1.37;;;26.50;92.80;;;;;;5146077;27;20467;-65
2022/07/17 00:03:05;;;;;;;1.50;1.10;;;26.60;91.70;;;;;;5152604;27;21053;-66
2022/07/17 00:05:36;;;;;;;1.17;1.07;;;26.70;91.00;;;;;;5143764;27;20480;-66
2022/07/17 00:08:08;;;;;;;1.37;1.00;;;26.80;91.80;;;;;;5143710;27;20444;-65
2022/07/17 00:10:39;;;;;;;0.80;0.80;;;27.00;91.10;;;;;;5143762;27;20457;-65
2022/07/17 00:13:12;;;;;;;1.23;1.23;;;27.30;90.30;;;;;;5143581;27;20511;-65
2022/07/17 00:15:44;;;;;;;0.93;0.93;;;27.10;87.90;;;;;;5143626;27;20567;-65
2022/07/17 00:18:15;;;;;;;1.40;1.30;;;27.10;90.30;;;;;;5154344;27;20452;-65
2022/07/17 00:20:46;;;;;;;1.33;1.23;;;27.10;88.00;;;;;;5160567;27;20448;-65
2022/07/17 00:23:17;;;;;;;1.40;1.30;;;26.80;89.30;;;;;;5145052;27;20572;-65
2022/07/17 00:25:48;;;;;;;5.67;5.07;;;26.50;90.30;;;;;;5157729;27;20466;-65
2022/07/17 00:28:19;;;;;;;3.43;3.13;;;26.30;90.30;;;;;;5143495;27;20479;-65
2022/07/17 00:30:51;;;;;;;1.90;1.37;;;26.20;90.70;;;;;;5141561;27;20641;-64
2022/07/17 00:33:22;;;;;;;1.43;1.33;;;26.50;91.10;;;;;;5157368;27;20459;-65
2022/07/17 00:35:53;;;;;;;1.50;1.40;;;26.60;88.80;;;;;;5134492;27;20456;-64
2022/07/17 00:38:24;;;;;;;1.20;1.10;;;26.50;90.50;;;;;;5125813;27;20467;-65
2022/07/17 00:40:56;;;;;;;1.50;1.40;;;26.40;91.00;;;;;;5132079;27;20595;-65
2022/07/17 00:43:29;;;;;;;1.30;1.20;;;26.40;90.70;;;;;;5133619;27;20457;-64
2022/07/17 00:46:02;;;;;;;1.30;1.20;;;26.40;89.80;;;;;;5135769;27;20588;-64
2022/07/17 00:48:34;;;;;;;1.30;1.20;;;26.10;91.00;;;;;;5137744;27;20599;-63
2022/07/17 00:51:05;;;;;;;1.70;1.60;;;26.10;91.20;;;;;;5140111;27;20850;-64
2022/07/17 00:53:37;;;;;;;1.30;1.20;;;25.80;91.20;;;;;;5147562;27;20434;-64
2022/07/17 00:56:09;;;;;;;1.80;1.30;;;25.80;91.80;;;;;;5148449;27;20486;-64
2022/07/17 00:58:41;;;;;;;1.70;1.60;;;25.80;92.00;;;;;;5138509;27;20456;-62
2022/07/17 01:01:13;;;;;;;1.60;1.50;;;25.90;91.80;;;;;;5149235;27;20523;-64
2022/07/17 01:03:44;;;;;;;1.20;1.10;;;25.80;92.30;;;;;;5145111;27;20612;-65
2022/07/17 01:06:15;;;;;;;2.03;1.70;;;25.80;92.60;;;;;;5143630;27;20491;-65
2022/07/17 01:08:46;;;;;;;1.30;1.20;;;25.60;92.70;;;;;;5151143;27;20503;-65
2022/07/17 01:11:17;;;;;;;1.40;1.20;;;25.60;92.40;;;;;;5149837;27;20466;-63
2022/07/17 01:13:51;;;;;;;1.50;1.40;;;25.70;92.20;;;;;;5130918;27;20466;-64
2022/07/17 01:16:24;;;;;;;1.60;1.50;;;25.70;91.60;;;;;;5146563;27;20467;-65
2022/07/17 01:19:02;;;;;;;1.80;1.70;;;25.60;91.50;;;;;;5157421;27;20465;-64
2022/07/17 01:21:46;;;;;;;1.70;1.60;;;25.60;91.70;;;;;;5144379;27;20499;-65
2022/07/17 01:24:19;;;;;;;1.50;1.40;;;25.50;92.00;;;;;;5153303;27;20480;-65
2022/07/17 01:26:53;;;;;;;1.40;1.30;;;25.50;91.10;;;;;;5163344;27;20480;-65
2022/07/17 01:29:24;;;;;;;2.20;1.37;;;25.40;92.10;;;;;;5144428;27;20457;-65
2022/07/17 01:31:55;;;;;;;1.40;1.30;;;25.40;91.50;;;;;;5140908;27;20470;-63
2022/07/17 01:34:26;;;;;;;1.27;1.17;;;25.30;91.00;;;;;;5151059;27;20456;-64
2022/07/17 01:37:01;;;;;;;1.20;1.10;;;25.00;92.00;;;;;;5142295;27;20479;-63
2022/07/17 01:42:19;;;;;;;2.00;1.63;;;24.90;91.40;;;;;;5144536;27;20570;-65
2022/07/17 01:44:51;;;;;;;1.30;1.20;;;24.70;92.20;;;;;;5135100;27;20457;-64
2022/07/17 01:47:23;;;;;;;1.50;1.27;;;24.50;92.50;;;;;;5134482;27;20592;-64
2022/07/17 01:49:57;;;;;;;1.77;1.67;;;24.40;92.60;;;;;;5146326;27;20508;-66
2022/07/17 01:52:33;;;;;;;1.30;1.20;;;24.40;92.80;;;;;;5143403;27;20456;-66
2022/07/17 01:55:04;;;;;;;1.57;1.47;;;24.20;92.90;;;;;;5133834;27;20533;-65
2022/07/17 01:57:35;;;;;;;1.83;1.63;;;24.00;93.20;;;;;;5140428;27;20461;-64
2022/07/17 02:00:08;;;;;;;1.80;1.70;;;23.90;93.60;;;;;;5135812;27;20501;-65
2022/07/17 02:02:39;;;;;;;2.40;1.30;;;23.80;93.10;;;;;;5153607;27;20574;-65
2022/07/17 02:05:10;;;;;;;1.67;1.57;;;23.70;93.10;;;;;;5140629;27;20449;-65
2022/07/17 02:07:44;;;;;;;2.00;1.83;;;23.70;93.30;;;;;;5140993;27;20488;-64
2022/07/17 02:10:17;;;;;;;1.83;1.60;;;23.60;92.80;;;;;;5141812;27;20806;-65
2022/07/17 02:12:48;;;;;;;1.80;1.70;;;23.60;93.20;;;;;;5128512;27;20464;-65
2022/07/17 02:15:19;;;;;;;1.67;1.57;;;23.50;93.40;;;;;;5144640;27;20469;-65
2022/07/17 02:17:50;;;;;;;1.73;1.63;;;23.50;93.10;;;;;;5142339;27;20459;-65
2022/07/17 02:20:21;;;;;;;2.30;1.83;;;23.50;92.70;;;;;;5143622;27;20492;-65
2022/07/17 02:22:56;;;;;;;1.87;1.60;;;23.40;92.90;;;;;;5133282;27;20456;-64
2022/07/17 02:25:27;;;;;;;1.40;1.30;;;23.40;92.50;;;;;;5130497;27;20464;-63
2022/07/17 02:27:58;;;;;;;1.67;1.40;;;23.40;92.60;;;;;;5154486;27;20448;-63
2022/07/17 02:30:29;;;;;;;1.40;1.30;;;23.30;92.60;;;;;;5152597;27;20928;-64
2022/07/17 02:33:02;;;;;;;2.57;1.50;;;23.30;92.80;;;;;;5162964;27;20547;-63
2022/07/17 02:35:33;;;;;;;2.83;1.43;;;23.30;92.90;;;;;;5165644;27;20537;-63
2022/07/17 02:38:05;;;;;;;1.00;0.97;;;23.10;92.30;;;;;;5159868;27;20458;-63
2022/07/17 02:40:36;;;;;;;1.33;1.23;;;23.00;92.50;;;;;;5138814;27;20449;-63
2022/07/17 02:43:07;;;;;;;1.33;1.20;;;22.80;92.30;;;;;;5146304;27;20453;-64
2022/07/17 02:45:38;;;;;;;1.27;1.17;;;22.70;93.00;;;;;;5128940;27;21327;-63
2022/07/17 02:48:09;;;;;;;1.20;1.10;;;22.60;92.50;;;;;;5143902;27;20476;-65
2022/07/17 02:50:40;;;;;;;2.90;1.50;;;22.50;92.70;;;;;;5145081;27;20634;-66
2022/07/17 02:53:14;;;;;;;1.13;1.03;;;22.30;92.90;;;;;;5162171;27;20455;-64
2022/07/17 02:55:45;;;;;;;1.37;1.27;;;22.20;92.70;;;;;;5149122;27;20518;-65
2022/07/17 02:58:16;;;;;;;1.53;1.10;;;22.20;92.90;;;;;;5149311;27;20463;-66
2022/07/17 03:00:47;;;;;;;1.10;0.90;;;22.00;92.80;;;;;;5142614;27;20952;-64
2022/07/17 03:03:20;;;;;;;3.20;1.27;;;22.10;93.00;;;;;;5157361;27;20479;-64
2022/07/17 03:05:55;;;;;;;0.90;0.90;;;22.00;93.00;;;;;;5160542;27;20451;-65
2022/07/17 03:08:27;;;;;;;1.13;1.13;;;22.00;93.00;;;;;;5143551;27;20464;-64
2022/07/17 03:10:58;;;;;;;1.50;1.10;;;22.00;93.10;;;;;;5150741;27;20460;-64
2022/07/17 03:13:29;;;;;;;1.20;1.07;;;21.90;93.20;;;;;;5133370;27;20504;-65
2022/07/17 03:16:00;;;;;;;4.33;1.27;;;21.90;93.10;;;;;;5142375;27;20463;-65
2022/07/17 03:18:32;;;;;;;2.40;1.33;;;21.70;93.20;;;;;;5142571;27;20521;-63
2022/07/17 03:21:03;;;;;;;1.10;1.00;;;21.60;93.40;;;;;;5152668;27;20455;-66
2022/07/17 03:23:35;;;;;;;1.53;1.43;;;21.50;93.30;;;;;;5150916;27;20452;-64
2022/07/17 03:26:06;;;;;;;0.93;0.93;;;21.40;93.70;;;;;;5143901;27;20498;-65
2022/07/17 03:28:37;;;;;;;1.53;1.43;;;21.30;94.50;;;;;;5163847;27;20436;-66
2022/07/17 03:31:08;;;;;;;3.23;1.40;;;21.30;95.20;;;;;;5133768;27;20977;-65
2022/07/17 03:33:39;;;;;;;3.40;1.20;;;21.20;94.40;;;;;;5157966;27;20423;-65
2022/07/17 03:36:10;;;;;;;1.40;1.17;;;21.20;95.90;;;;;;5152877;27;20552;-64
2022/07/17 03:38:43;;;;;;;1.80;1.20;;;21.10;95.60;;;;;;5141837;27;20467;-65
2022/07/17 03:41:16;;;;;;;1.10;1.00;;;21.10;95.20;;;;;;5144464;27;20444;-66
2022/07/17 03:43:47;;;;;;;1.80;1.60;;;21.10;94.90;;;;;;5140330;27;20468;-65
2022/07/17 03:46:18;;;;;;;1.97;1.30;;;21.00;95.70;;;;;;5143668;27;20449;-64
2022/07/17 03:48:49;;;;;;;1.60;1.40;;;21.10;95.10;;;;;;5145994;27;20480;-64
2022/07/17 03:51:20;;;;;;;1.63;1.30;;;21.20;95.60;;;;;;5133733;27;20463;-64
2022/07/17 03:53:52;;;;;;;1.20;1.10;;;21.20;94.90;;;;;;5140497;27;20878;-64
2022/07/17 03:56:24;;;;;;;1.40;1.30;;;21.20;94.60;;;;;;5161599;27;20454;-65
2022/07/17 03:58:54;;;;;;;1.37;1.20;;;21.00;95.30;;;;;;5152303;27;20428;-64
2022/07/17 04:01:25;;;;;;;1.50;1.40;;;20.90;95.40;;;;;;5133733;27;20464;-63
2022/07/17 04:03:56;;;;;;;1.43;1.33;;;20.90;95.40;;;;;;5142314;27;20470;-64
2022/07/17 04:06:27;;;;;;;1.13;1.03;;;20.80;95.50;;;;;;5150255;27;20469;-64
2022/07/17 04:09:01;;;;;;;3.10;1.10;;;20.80;95.40;;;;;;5137532;27;21096;-64
2022/07/17 04:11:32;;;;;;;1.63;1.33;;;20.70;96.10;;;;;;5134697;27;20456;-65
2022/07/17 04:14:03;;;;;;;1.00;0.90;;;20.70;96.40;;;;;;5138660;27;20457;-63
2022/07/17 04:16:34;;;;;;;1.40;1.30;;;20.70;96.10;;;;;;5141828;27;20461;-63
2022/07/17 04:19:04;;;;;;;1.40;1.30;;;20.60;96.60;;;;;;5141792;27;20448;-63
2022/07/17 04:21:35;;;;;;;1.40;1.10;;;20.60;96.10;;;;;;5148909;27;20463;-64
2022/07/17 04:24:08;;;;;;;1.23;1.13;;;20.50;96.80;;;;;;5143128;27;20475;-64
2022/07/17 04:26:45;;;;;;;1.27;1.17;;;20.40;97.00;;;;;;5138545;27;20451;-63
2022/07/17 04:29:15;;;;;;;1.90;1.40;;;20.40;97.40;;;;;;5141277;27;20520;-64
2022/07/17 04:31:48;;;;;;;1.07;0.90;;;20.30;97.20;;;;;;5144317;27;20457;-64
2022/07/17 04:34:19;;;;;;;2.03;1.03;;;20.20;97.50;;;;;;5132790;27;20438;-64
2022/07/17 04:36:50;;;;;;;1.43;1.00;;;20.20;97.50;;;;;;5139578;27;20512;-62
2022/07/17 04:39:23;;;;;;;0.90;0.80;;;20.20;97.40;;;;;;5144135;27;20466;-63
2022/07/17 04:41:54;;;;;;;1.70;1.20;;;20.10;97.80;;;;;;5143443;27;20483;-63
2022/07/17 04:44:28;;;;;;;1.10;1.10;;;20.10;98.10;;;;;;5156305;27;21431;-63
2022/07/17 04:47:01;;;;;;;1.33;1.23;;;20.00;98.10;;;;;;5142857;27;20459;-63
2022/07/17 04:49:33;;;;;;;1.40;0.97;;;20.00;98.00;;;;;;5130283;27;20464;-63
2022/07/17 04:52:04;;;;;;;1.40;1.30;;;20.00;97.80;;;;;;5139841;27;20460;-63
2022/07/17 04:54:36;;;;;;;1.20;0.87;;;20.00;97.60;;;;;;5138349;27;20449;-63
2022/07/17 04:57:11;;;;;;;0.97;0.87;;;20.00;97.90;;;;;;5142984;27;20448;-62
2022/07/17 04:59:44;;;;;;;1.53;1.43;;;20.00;97.20;;;;;;5142959;27;20453;-62
2022/07/17 05:02:15;;;;;;;1.40;1.30;;;20.00;97.50;;;;;;5135247;27;20472;-63
2022/07/17 05:04:46;;;;;;;2.23;1.90;;;20.00;97.20;;;;;;5140113;27;20461;-63
2022/07/17 05:07:19;;;;;;;1.07;1.00;;;20.00;97.60;;;;;;5142205;27;20491;-62
2022/07/17 05:09:53;;;;;;;0.80;0.80;;;19.90;96.90;;;;;;5140297;27;20526;-62
2022/07/17 05:12:24;;;;;;;0.87;0.83;;;20.00;96.40;;;;;;5132870;27;20483;-62
2022/07/17 05:14:55;;;;;;;0.80;0.80;;;20.00;96.40;;;;;;5138487;27;20452;-62
2022/07/17 05:17:26;;;;;;;2.00;0.97;;;20.00;96.10;;;;;;5150808;27;20544;-62
2022/07/17 05:19:57;;;;;;;1.30;1.20;;;20.00;95.90;;;;;;5133361;27;20480;-62
2022/07/17 05:22:27;;;;;;;1.80;1.00;;;19.90;96.10;;;;;;5146078;27;20423;-62
2022/07/17 05:25:00;;;;;;;1.50;1.00;;;19.90;96.10;;;;;;5127312;27;20504;-62
2022/07/17 05:27:31;;;;;;;0.93;0.93;;;19.90;96.10;;;;;;5131082;27;20588;-62
2022/07/17 05:30:01;;;;;;;1.47;1.10;;;19.90;96.20;;;;;;5158938;27;20498;-62
2022/07/17 05:32:32;;;;;;;0.90;0.80;;;19.90;96.20;;;;;;5164415;27;20434;-62
2022/07/17 05:35:03;;;;;;;0.80;0.80;;;19.80;96.20;;;;;;5146530;27;20446;-62
2022/07/17 05:37:34;;;;;;;1.10;1.00;;;19.80;96.50;;;;;;5147985;27;20467;-62
2022/07/17 05:40:08;;;;;;;2.90;1.00;;;19.80;96.50;;;;;;5156828;27;20455;-63
2022/07/17 05:42:42;;;;;;;1.30;1.10;;;19.80;96.70;;;;;;5155478;27;20418;-62
2022/07/17 05:45:13;;;;;;;1.10;0.80;;;19.70;96.90;;;;;;5144518;27;21011;-62
2022/07/17 05:47:44;;;;;;;1.00;1.00;;;19.70;96.90;;;;;;5149590;27;20486;-62
2022/07/17 05:50:15;;;;;;;1.00;0.90;;;19.80;97.30;;;;;;5166749;27;20427;-62
2022/07/17 05:52:46;;;;;;;0.80;0.80;;;19.70;97.70;;;;;;5165392;27;20423;-62
2022/07/17 05:55:19;;;;;;;1.10;0.93;;;19.70;97.70;;;;;;5166588;27;20448;-63
2022/07/17 05:57:49;;;;;;;1.10;1.00;;;19.60;97.70;;;;;;5162049;27;20454;-62
2022/07/17 06:00:20;;;;;;;2.80;0.83;;;19.50;97.90;;;;;;5153989;27;20577;-62
2022/07/17 06:02:51;;;;;;;1.10;0.80;;;19.50;97.90;;;;;;5147125;27;20496;-62
2022/07/17 06:05:22;;;;;;;1.17;1.07;;;19.50;98.10;;;;;;5142307;27;20453;-62
2022/07/17 06:07:53;;;;;;;1.80;0.90;;;19.50;97.90;;;;;;5133421;27;20456;-62
2022/07/17 06:10:26;;;;;;;1.17;1.07;;;19.40;98.00;;;;;;5158871;27;20437;-62
2022/07/17 06:12:59;;;;;;;0.80;0.80;;;19.30;98.40;;;;;;5145551;27;20455;-62
2022/07/17 06:15:30;;;;;;;1.13;1.03;;;19.30;98.10;;;;;;5145748;27;20436;-62
2022/07/17 06:18:06;;;;;;;1.40;1.00;;;19.30;98.60;;;;;;5130569;27;20746;-62
2022/07/17 06:20:37;;;;;;;1.23;1.10;;;19.30;98.40;;;;;;5143973;27;20467;-62
2022/07/17 06:23:08;;;;;;;1.13;1.03;;;19.20;98.40;;;;;;5141248;27;20464;-62
2022/07/17 06:25:40;;;;;;;1.07;0.60;;;19.20;98.50;;;;;;5140468;27;20443;-62
2022/07/17 06:28:16;;;;;;;0.80;0.80;;;19.20;98.90;;;;;;5131663;27;20549;-62
2022/07/17 06:30:47;;;;;;;0.77;0.77;;;19.10;99.00;;;;;;5141551;27;20776;-62
2022/07/17 06:33:18;;;;;;;0.70;0.70;;;19.10;98.90;;;;;;5146731;27;20755;-62
2022/07/17 06:35:49;;;;;;;3.60;1.10;;;19.00;98.80;;;;;;5142254;27;20447;-62
2022/07/17 06:38:20;;;;;;;0.90;0.90;;;19.00;99.10;;;;;;5139875;27;20444;-62
2022/07/17 06:40:52;;;;;;;1.47;0.80;;;18.90;99.50;;;;;;5151640;27;20843;-62
2022/07/17 06:43:23;;;;;;;0.83;0.83;;;18.90;99.80;;;;;;5135808;27;20459;-62
2022/07/17 06:45:54;;;;;;;1.23;0.73;;;18.80;99.90;;;;;;5142954;27;20471;-62
2022/07/17 06:48:33;;;;;;;1.03;0.93;;;18.80;99.90;;;;;;5127186;27;20486;-62
2022/07/17 06:51:04;;;;;;;3.00;0.80;;;18.70;99.90;;;;;;5144406;27;20905;-62
2022/07/17 06:53:34;;;;;;;1.53;1.20;;;18.70;99.90;;;;;;5140754;27;20416;-62
2022/07/17 06:56:07;;;;;;;0.97;0.87;;;18.70;99.90;;;;;;5164866;27;20446;-62
2022/07/17 06:58:45;;;;;;;1.23;0.90;;;18.60;99.90;;;;;;5164292;27;20440;-62
2022/07/17 07:01:19;;;;;;;1.03;0.93;;;18.50;99.90;;;;;;5165100;27;20422;-62
2022/07/17 07:03:51;;;;;;;1.57;0.80;;;18.50;99.90;;;;;;5145029;27;20540;-62
2022/07/17 07:06:22;;;;;;;1.20;1.10;;;18.40;99.90;;;;;;5144226;27;20556;-62
2022/07/17 07:08:53;;;;;;;1.10;0.80;;;18.40;99.90;;;;;;5147857;27;20471;-62
2022/07/17 07:11:26;;;;;;;1.17;1.00;;;18.40;99.90;;;;;;5143270;27;21003;-63
2022/07/17 07:13:57;;;;;;;1.57;1.00;;;18.40;99.90;;;;;;5140310;27;20442;-62
2022/07/17 07:16:33;;;;;;;1.03;0.90;;;18.40;99.90;;;;;;5145466;27;20861;-62
2022/07/17 07:19:04;;;;;;;1.27;1.00;;;18.40;99.90;;;;;;5142239;27;20511;-62
2022/07/17 07:21:35;;;;;;;1.30;1.10;;;18.40;99.90;;;;;;5140187;27;20494;-62
2022/07/17 07:24:06;;;;;;;1.00;0.90;;;18.40;99.90;;;;;;5138909;27;20546;-62
2022/07/17 07:26:39;;;;;;;1.00;1.00;;;18.40;99.90;;;;;;5135281;27;20436;-63
2022/07/17 07:29:10;;;;;;;1.27;1.17;;;18.40;99.90;;;;;;5140144;27;20495;-62
2022/07/17 07:31:55;;;;;;;1.13;1.03;;;18.40;99.90;;;;;;5140987;27;20435;-62
2022/07/17 07:34:26;;;;;;;2.73;1.17;;;18.50;99.90;;;;;;5142385;27;20499;-62
2022/07/17 07:36:57;;;;;;;1.00;0.90;;;18.50;99.90;;;;;;5138146;27;20461;-62
2022/07/17 07:39:28;;;;;;;1.57;1.03;;;18.40;99.90;;;;;;5147770;27;20456;-62
2022/07/17 07:42:01;;;;;;;0.90;0.80;;;18.40;99.90;;;;;;5152080;27;20448;-61
2022/07/17 07:44:35;;;;;;;1.10;1.00;;;18.40;99.90;;;;;;5126668;27;20489;-62
2022/07/17 07:47:06;;;;;;;1.57;1.10;;;18.30;99.90;;;;;;5142904;27;20445;-62
2022/07/17 07:49:37;;;;;;;0.93;0.83;;;18.30;99.90;;;;;;5145105;27;21142;-61
2022/07/17 07:52:09;;;;;;;1.43;0.90;;;18.30;99.90;;;;;;5143730;27;20514;-61
2022/07/17 07:54:40;;;;;;;1.27;1.17;;;18.40;99.90;;;;;;5132160;27;20455;-62
2022/07/17 07:57:13;;;;;;;1.03;0.93;;;18.40;99.90;;;;;;5138002;27;20444;-62
2022/07/17 07:59:43;;;;;;;1.47;1.33;;;18.30;99.90;;;;;;5141849;27;20835;-62
2022/07/17 08:02:14;;;;;;;1.20;1.10;;;18.30;99.90;;;;;;5142105;27;20455;-62
2022/07/17 08:04:45;;;;;;;0.80;0.80;;;18.40;99.90;;;;;;5136987;27;20434;-62
2022/07/17 08:07:18;;;;;;;1.17;1.00;;;18.20;99.90;;;;;;5145494;27;20457;-62
2022/07/17 08:09:50;;;;;;;0.87;0.87;;;18.20;99.90;;;;;;5146637;27;20492;-62
2022/07/17 08:12:22;;;;;;;1.13;1.03;;;18.10;99.90;;;;;;5140770;27;20457;-62
2022/07/17 08:15:13;;;;;;;0.77;0.70;;;18.10;99.90;;;;;;5142307;27;20420;-62
2022/07/17 08:17:44;;;;;;;1.90;1.13;;;18.10;99.90;;;;;;5146491;27;20473;-62
2022/07/17 08:20:16;;;;;;;0.97;0.93;;;18.10;99.90;;;;;;5143019;27;20457;-62
2022/07/17 08:22:47;;;;;;;1.07;0.67;;;18.10;99.90;;;;;;5129128;27;20456;-62
2022/07/17 08:25:36;;;;;;;1.27;1.17;;;18.00;99.90;;;;;;5133174;27;20523;-62
2022/07/17 08:28:15;;;;;;;1.03;1.00;;;18.00;99.90;;;;;;5143751;27;20474;-62
2022/07/17 08:30:52;;;;;;;1.30;1.20;;;18.00;99.90;;;;;;5141194;27;20481;-62
2022/07/17 08:33:22;;;;;;;1.10;1.00;;;18.00;99.90;;;;;;5139006;27;20498;-62
2022/07/17 08:35:53;;;;;;;0.90;0.90;;;18.00;99.90;;;;;;5128869;27;20568;-62
2022/07/17 08:38:27;;;;;;;1.47;1.00;;;18.00;99.90;;;;;;5141585;27;21105;-62
2022/07/17 08:40:58;;;;;;;1.57;1.33;;;17.90;99.90;;;;;;5152198;27;20430;-62
2022/07/17 08:43:33;;;;;;;0.90;0.90;;;17.80;99.90;;;;;;5132353;27;20478;-62
2022/07/17 08:46:15;;;;;;;1.10;0.90;;;17.80;99.90;;;;;;5128781;27;20460;-62
2022/07/17 08:48:48;;;;;;;2.80;0.80;;;17.70;99.90;;;;;;5146091;27;20464;-61
2022/07/17 08:51:19;;;;;;;1.00;1.00;;;17.70;99.90;;;;;;5136774;27;20484;-62
2022/07/17 08:53:50;;;;;;;1.17;1.10;;;17.70;99.90;;;;;;5142846;27;20452;-62
2022/07/17 08:56:21;;;;;;;0.87;0.87;;;17.70;99.90;;;;;;5143493;27;20835;-62
2022/07/17 08:58:55;;;;;;;1.20;1.10;;;17.70;99.90;;;;;;5152990;27;20808;-61
2022/07/17 09:01:26;;;;;;;1.03;0.70;;;17.70;99.90;;;;;;5135373;27;20947;-62
2022/07/17 09:03:59;;;;;;;1.20;0.70;;;17.70;99.90;;;;;;5098675;28;20437;-62
2022/07/17 09:06:30;;;;;;;0.90;0.90;;;17.70;99.90;;;;;;5111255;28;20526;-61
2022/07/17 09:09:09;;;;;;;0.90;0.90;;;17.70;99.90;;;;;;5114105;28;20461;-62
2022/07/17 09:11:47;;;;;;;0.70;0.70;;;17.60;99.90;;;;;;5111533;28;20495;-62
2022/07/17 09:14:21;;;;;;;1.10;1.00;;;17.60;99.90;;;;;;5094198;28;20433;-61
2022/07/17 09:16:56;;;;;;;0.93;0.93;;;17.60;99.90;;;;;;5096656;28;20754;-62
2022/07/17 09:19:28;;;;;;;0.93;0.93;;;17.60;99.90;;;;;;5099430;28;20468;-62
2022/07/17 09:22:13;;;;;;;0.93;0.93;;;17.60;99.90;;;;;;5103933;28;20488;-61
2022/07/17 09:24:47;;;;;;;0.93;0.83;;;17.60;99.90;;;;;;5104354;28;20432;-62
2022/07/17 09:27:30;;;;;;;0.90;0.90;;;17.60;99.90;;;;;;5102994;28;20462;-61
2022/07/17 09:30:09;;;;;;;0.97;0.87;;;17.60;99.90;;;;;;5095087;28;20503;-62
2022/07/17 09:32:41;;;;;;;1.00;1.00;;;17.50;99.90;;;;;;5110386;28;20462;-62
2022/07/17 09:35:12;;;;;;;0.80;0.80;;;17.60;99.90;;;;;;5098898;28;20472;-62
2022/07/17 09:37:43;;;;;;;1.07;0.90;;;17.60;99.90;;;;;;5102748;28;20448;-62
2022/07/17 09:41:09;;;;;;;0.70;0.60;;;17.60;99.90;;;;;;5117911;28;20451;-62
2022/07/17 09:43:08;;;;;;;1.03;0.73;;;17.60;99.90;;;;;;5102558;28;20433;-62
2022/07/17 09:45:41;;;;;;;1.10;1.00;;;17.60;99.90;;;;;;5103034;28;20476;-61
2022/07/17 09:48:13;;;;;;;1.10;1.00;;;17.60;99.90;;;;;;5116919;28;20497;-62
2022/07/17 09:50:45;;;;;;;0.80;0.60;;;17.50;99.90;;;;;;5109932;28;20908;-62
2022/07/17 09:53:17;;;;;;;0.93;0.93;;;17.60;99.90;;;;;;5102192;28;20488;-62
2022/07/17 09:56:03;;;;;;;2.00;0.83;;;17.60;99.90;;;;;;5101322;28;20462;-63
2022/07/17 09:58:37;;;;;;;0.70;0.70;;;17.50;99.90;;;;;;5091576;28;20453;-62
2022/07/17 10:01:10;;;;;;;2.00;1.07;;;17.60;99.90;;;;;;5093458;28;20463;-62
2022/07/17 10:03:42;;;;;;;1.20;1.10;;;17.50;99.90;;;;;;5138447;27;20563;-62
2022/07/17 10:06:13;;;;;;;1.23;1.13;;;17.50;99.90;;;;;;5129558;27;20469;-62
2022/07/17 10:08:47;;;;;;;1.27;1.20;;;17.50;99.90;;;;;;5151423;27;20556;-62
2022/07/17 10:11:21;;;;;;;0.73;0.73;;;17.50;99.90;;;;;;5151940;27;20553;-62
2022/07/17 10:13:54;;;;;;;1.00;0.93;;;17.40;99.90;;;;;;5147202;27;20429;-62
2022/07/17 10:16:31;;;;;;;1.23;0.90;;;17.50;99.90;;;;;;5156834;27;20535;-62
2022/07/17 10:19:05;;;;;;;1.00;1.00;;;17.40;99.90;;;;;;5144409;27;20479;-62
2022/07/17 10:21:36;;;;;;;0.70;0.70;;;17.30;99.90;;;;;;5150544;27;20441;-62
2022/07/17 10:24:11;;;;;;;1.00;0.83;;;17.30;99.90;;;;;;5138718;27;20465;-62
2022/07/17 10:26:44;;;;;;;1.00;1.00;;;17.30;99.90;;;;;;5138112;27;20475;-62
2022/07/17 10:29:34;;;;;;;1.20;1.10;;;17.30;99.90;;;;;;5143595;27;20528;-62
2022/07/17 10:32:15;;;;;;;0.87;0.80;;;17.30;99.90;;;;;;5148314;27;20492;-62
2022/07/17 10:34:50;;;;;;;2.43;0.90;;;17.30;99.90;;;;;;5143578;27;20482;-62
2022/07/17 10:37:27;;;;;;;1.20;1.10;;;17.30;99.90;;;;;;5131246;27;20461;-61
2022/07/17 10:40:04;;;;;;;0.70;0.70;;;17.30;99.90;;;;;;5149579;27;20446;-62
2022/07/17 10:42:43;;;;;;;1.10;1.00;;;17.40;99.90;;;;;;5150686;27;20460;-62
2022/07/17 10:45:16;;;;;;;1.63;1.10;;;17.30;99.90;;;;;;5140830;27;21026;-62
2022/07/17 10:47:53;;;;;;;1.60;0.83;;;17.30;99.90;;;;;;5132807;27;20540;-62
2022/07/17 10:50:30;;;;;;;1.00;0.80;;;17.30;99.90;;;;;;5135921;27;20475;-62
2022/07/17 10:53:03;;;;;;;1.17;1.03;;;17.20;99.90;;;;;;5141361;27;20489;-62
2022/07/17 10:55:35;;;;;;;0.80;0.80;;;17.20;99.90;;;;;;5141747;27;20847;-61
2022/07/17 10:58:15;;;;;;;1.13;0.93;;;17.20;99.90;;;;;;5140523;27;20566;-62
2022/07/17 11:01:15;;;;;;;0.90;0.90;;;17.20;99.90;;;;;;5128660;27;20451;-62
2022/07/17 11:03:49;;;;;;;1.50;0.77;;;17.20;99.90;;;;;;5141911;27;20516;-62
2022/07/17 11:06:24;;;;;;;0.70;0.70;;;17.20;99.90;;;;;;5145392;27;20514;-62
2022/07/17 11:08:57;;;;;;;1.03;1.00;;;17.30;99.90;;;;;;5129705;27;20461;-62
2022/07/17 11:11:40;;;;;;;1.40;1.00;;;17.20;99.90;;;;;;5129503;27;20495;-62
2022/07/17 11:14:13;;;;;;;1.43;1.17;;;17.20;99.90;;;;;;5138712;27;20520;-62
2022/07/17 11:16:48;;;;;;;0.80;0.80;;;17.20;99.90;;;;;;5127676;27;20524;-62
2022/07/17 11:19:30;;;;;;;0.87;0.80;;;17.10;99.90;;;;;;5142951;27;20452;-62
2022/07/17 11:22:02;;;;;;;0.97;0.90;;;17.20;99.90;;;;;;5148848;27;20798;-62
2022/07/17 11:24:38;;;;;;;1.00;1.00;;;17.10;99.90;;;;;;5142262;27;20463;-62
2022/07/17 11:27:15;;;;;;;1.03;0.90;;;17.10;99.90;;;;;;5137372;27;20522;-62
2022/07/17 11:29:46;;;;;;;0.87;0.83;;;17.10;99.90;;;;;;5137452;27;20725;-62
2022/07/17 11:32:17;;;;;;;1.50;1.40;;;17.20;99.90;;;;;;5141672;27;20560;-61
2022/07/17 11:34:50;;;;;;;1.00;0.90;;;17.20;99.90;;;;;;5129217;27;20461;-61
2022/07/17 11:37:23;;;;;;;0.93;0.93;;;17.10;99.90;;;;;;5134099;27;20472;-61
2022/07/17 11:39:54;;;;;;;1.00;0.70;;;17.10;99.90;;;;;;5133498;27;20753;-62
2022/07/17 11:42:27;;;;;;;1.03;0.83;;;17.10;99.90;;;;;;5153813;27;20457;-63
2022/07/17 11:45:00;;;;;;;0.97;0.87;;;17.10;99.90;;;;;;5142873;27;20448;-62
2022/07/17 11:47:37;;;;;;;0.60;0.60;;;17.10;99.90;;;;;;5131888;27;20435;-62
2022/07/17 11:50:12;;;;;;;0.60;0.60;;;17.10;99.90;;;;;;5158164;27;20430;-61
2022/07/17 11:52:48;;;;;;;0.80;0.80;;;17.10;99.90;;;;;;5140371;27;20463;-61
2022/07/17 11:55:23;;;;;;;1.30;0.63;;;17.10;99.90;;;;;;5136866;27;20551;-61
2022/07/17 11:57:54;;;;;;;1.17;0.97;;;17.00;99.90;;;;;;5138657;27;20452;-61
2022/07/17 12:00:25;;;;;;;0.87;0.80;;;16.90;99.90;;;;;;5132138;27;20460;-61
2022/07/17 12:03:01;;;;;;;0.83;0.83;;;16.90;99.90;;;;;;5147677;27;20463;-61
2022/07/17 12:05:38;;;;;;;1.70;0.80;;;16.90;99.90;;;;;;5141438;27;20460;-61
2022/07/17 12:08:30;;;;;;;1.37;1.00;;;16.90;99.90;;;;;;5126001;27;20488;-61
2022/07/17 12:11:08;;;;;;;0.80;0.80;;;16.80;99.90;;;;;;5140345;27;20467;-61
2022/07/17 12:13:47;;;;;;;1.90;0.67;;;16.80;99.90;;;;;;5136779;27;20484;-61
2022/07/17 12:16:26;;;;;;;0.93;0.83;;;16.80;99.90;;;;;;5129811;27;20476;-61
2022/07/17 12:19:08;;;;;;;0.70;0.70;;;16.70;99.90;;;;;;5139309;27;20620;-63
2022/07/17 12:22:02;;;;;;;0.70;0.70;;;16.70;99.90;;;;;;5144409;27;20433;-61
2022/07/17 12:24:39;;;;;;;1.40;0.80;;;16.70;99.90;;;;;;5136246;27;20454;-61
2022/07/17 12:27:13;;;;;;;0.70;0.70;;;16.70;99.90;;;;;;5122126;27;20457;-62
2022/07/17 12:29:46;;;;;;;0.73;0.73;;;16.60;99.90;;;;;;5128607;27;20476;-61
2022/07/17 12:32:23;;;;;;;0.70;0.70;;;16.60;99.90;;;;;;5154700;27;20547;-62
2022/07/17 12:34:57;;;;;;;0.93;0.80;;;16.60;99.90;;;;;;5139339;27;20554;-60
2022/07/17 12:37:33;;;;;;;1.50;0.60;;;16.50;99.90;;;;;;5147615;27;20519;-62
2022/07/17 12:40:04;;;;;;;0.97;0.87;;;16.50;99.90;;;;;;5133150;27;20444;-61
2022/07/17 12:42:41;;;;;;;0.90;0.90;;;16.60;99.90;;;;;;5128229;27;20437;-61
2022/07/17 12:45:13;;;;;;;0.57;0.50;;;16.60;99.90;;;;;;5139179;27;20549;-61
2022/07/17 12:47:43;;;;;;;0.80;0.80;;;16.60;99.90;;;;;;5132897;27;20497;-61
2022/07/17 12:50:14;;;;;;;0.97;0.90;;;16.60;99.90;;;;;;5144285;27;20844;-61
2022/07/17 12:52:50;;;;;;;1.00;0.90;;;16.60;99.90;;;;;;5132887;27;20448;-62
2022/07/17 12:55:36;;;;;;;1.03;0.87;;;16.50;99.90;;;;;;5146125;27;20476;-63
2022/07/17 12:58:09;;;;;;;0.93;0.93;;;16.60;99.90;;;;;;5160187;27;20448;-61
2022/07/17 13:00:40;;;;;;;0.87;0.70;;;16.60;99.90;;;;;;5138428;27;20457;-61
2022/07/17 13:03:18;;;;;;;1.00;0.83;;;16.50;99.90;;;;;;5129030;27;20467;-61
2022/07/17 13:05:49;;;;;;;1.43;0.80;;;16.60;99.90;;;;;;5136861;27;20450;-61
2022/07/17 13:08:21;;;;;;;0.90;0.90;;;16.60;99.90;;;;;;5137538;27;20544;-61
2022/07/17 13:10:52;;;;;;;1.00;0.77;;;16.60;99.90;;;;;;5142599;27;20536;-61
2022/07/17 13:13:23;;;;;;;0.73;0.73;;;16.60;99.90;;;;;;5138465;27;20556;-61
2022/07/17 13:15:54;;;;;;;0.80;0.80;;;16.60;99.90;;;;;;5135407;27;20462;-61
2022/07/17 13:18:27;;;;;;;0.67;0.67;;;16.70;99.90;;;;;;5147838;27;20920;-61
2022/07/17 13:21:04;;;;;;;0.50;0.50;;;16.70;99.90;;;;;;5135474;27;20465;-61